Latest Weather Observations for Norah Head

IDN60801

Issued at 3:32 pm EST Monday 27 May 2019 (issued every 10 minutes, with the page automatically refreshed every 10 minutes)

About weather observations | Map of weather stations | Latest weather observations for NSW | Other Formats
Station Details ID: 061366 Name: NORAH HEAD AWS Lat: -33.28 Lon: 151.58 Height: 18.8 m
Data from the previous 72 hours. | See also: Recent months at Norah Head
Date/Time
EST
Temp
°C
App
Temp
°C
Dew
Point
°C
Rel
Hum
%
Delta-T
°C
Wind Press
QNH
hPa
Press
MSL
hPa
Rain since
9am
mm
Dir  Spd
km/h
Gust
km/h
Spd
kts
Gust
kts
27/03:30pm 11.5 7.5 4.7 63 3.1 WNW 15 33 8 18 1009.6 1009.5 0.6
27/03:00pm 11.4 7.5 5.3 66 2.8 WNW 15 39 8 21 1008.8 1008.8 0.4
27/02:30pm 10.4 4.8 7.3 81 1.5 WSW 26 48 14 26 1009.2 1009.2 0.4
27/02:12pm 13.0 7.3 6.8 66 3.0 WSW 26 52 14 28 1008.0 1008.0 0.0
27/02:11pm 13.5 7.7 6.4 62 3.4 WSW 26 46 14 25 1008.0 1008.0 0.0
27/02:00pm 19.1 14.0 4.1 37 7.2 WNW 20 56 11 30 1006.3 1006.3 0.0
27/01:30pm 19.4 13.8 3.6 35 7.5 WNW 22 43 12 23 1006.2 1006.2 0.0
27/01:00pm 19.4 14.6 4.4 37 7.2 WNW 19 50 10 27 1006.6 1006.6 0.0
27/12:30pm 19.4 15.7 4.4 37 7.2 WNW 13 32 7 17 1006.7 1006.7 0.0
27/12:00pm 18.9 13.8 4.3 38 7.0 WNW 20 52 11 28 1006.7 1006.7 0.0
27/11:51am 18.5 12.1 3.2 36 7.1 WNW 26 54 14 29 1007.0 1007.0 0.0
27/11:50am 18.6 12.6 3.3 36 7.1 WNW 24 54 13 29 1006.8 1006.8 0.0
27/11:30am 18.9 15.1 5.7 42 6.5 WNW 15 32 8 17 1007.5 1007.5 0.0
27/11:00am 18.2 14.8 5.8 44 6.1 WNW 13 26 7 14 1008.0 1008.0 0.0
27/10:30am 17.6 12.8 4.9 43 6.1 WNW 19 41 10 22 1008.6 1008.6 0.0
27/10:00am 17.0 13.0 5.0 45 5.7 WNW 15 35 8 19 1009.2 1009.2 0.0
27/09:30am 16.7 12.7 4.7 45 5.7 WNW 15 33 8 18 1009.7 1009.6 0.0
27/09:00am 16.1 12.6 5.4 49 5.1 NW 13 24 7 13 1010.1 1010.0 0.0
27/08:30am 15.5 12.1 6.0 53 4.6 NW 13 30 7 16 1009.9 1009.8 0.0
27/08:00am 14.9 12.3 6.2 56 4.2 NW 9 19 5 10 1010.2 1010.1 0.0
27/07:30am 13.4 11.0 7.0 65 3.1 NW 9 15 5 8 1010.3 1010.2 0.0
27/07:00am 12.6 10.4 6.0 64 3.1 NW 7 15 4 8 1010.5 1010.4 0.0
27/06:30am 12.9 10.8 6.5 65 3.1 NW 7 13 4 7 1010.4 1010.3 0.0
27/06:00am 12.9 10.8 6.5 65 3.1 NW 7 15 4 8 1010.4 1010.3 0.0
27/05:30am 13.5 11.2 5.7 59 3.7 NW 7 17 4 9 1010.4 1010.3 0.0
27/05:00am 13.2 10.9 5.6 60 3.6 NW 7 15 4 8 1010.4 1010.3 0.0
27/04:30am 13.5 11.0 4.9 56 4.0 WNW 7 11 4 6 1010.6 1010.5 0.0
27/04:00am 13.6 11.1 5.0 56 4.0 NW 7 19 4 10 1010.7 1010.6 0.0
27/03:30am 13.5 11.1 5.4 58 3.8 WNW 7 17 4 9 1011.0 1010.9 0.0
27/03:00am 13.5 11.1 5.4 58 3.8 WNW 7 13 4 7 1011.3 1011.2 0.0
27/02:30am 14.0 11.5 6.4 60 3.7 WNW 9 17 5 9 1011.5 1011.4 0.0
27/02:00am 14.0 12.0 6.4 60 3.7 NW 6 9 3 5 1011.9 1011.8 0.0
27/01:30am 14.8 12.4 6.9 59 3.9 NW 9 19 5 10 1012.1 1012.0 0.0
27/01:00am 14.8 12.8 6.9 59 3.9 NW 7 15 4 8 1012.5 1012.4 0.0
27/12:30am 14.3 12.4 7.4 63 3.4 NNW 7 13 4 7 1012.8 1012.7 0.0
27/12:00am 14.5 12.6 7.5 63 3.5 NW 7 13 4 7 1013.0 1012.9 0.0
 
Date/Time
EST
Temp
°C
App
Temp
°C
Dew
Point
°C
Rel
Hum
%
Delta-T
°C
Wind Press
QNH
hPa
Press
MSL
hPa
Rain since
9am
mm
Dir  Spd
km/h
Gust
km/h
Spd
kts
Gust
kts
26/11:30pm 14.9 12.6 7.5 61 3.7 WNW 9 13 5 7 1013.2 1013.1 0.0
26/11:00pm 15.3 13.4 7.6 60 3.8 WNW 7 11 4 6 1013.3 1013.2 0.0
26/10:30pm 15.0 13.2 7.3 60 3.8 WNW 6 11 3 6 1013.5 1013.4 0.0
26/10:00pm 15.4 13.7 7.7 60 3.8 WNW 6 9 3 5 1013.9 1013.8 0.0
26/09:30pm 15.7 13.8 7.7 59 4.0 WNW 7 13 4 7 1014.0 1013.9 0.0
26/09:00pm 16.1 14.3 8.1 59 4.0 WNW 7 13 4 7 1014.1 1014.0 0.0
26/08:30pm 16.9 14.4 6.7 51 5.0 W 9 11 5 6 1014.1 1014.0 0.0
26/08:00pm 17.6 14.8 5.2 44 6.0 W 9 13 5 7 1014.0 1013.9 0.0
26/07:30pm 17.8 14.2 5.1 43 6.1 WSW 13 17 7 9 1013.9 1013.8 0.0
26/07:00pm 18.4 15.7 7.2 48 5.6 W 11 15 6 8 1013.7 1013.6 0.0
26/06:30pm 19.4 16.4 6.2 42 6.6 WSW 11 17 6 9 1013.5 1013.4 0.0
26/06:00pm 19.6 17.9 7.7 46 6.1 SW 6 9 3 5 1013.1 1013.0 0.0
26/05:30pm 19.5 18.1 8.8 50 5.6 SW 6 9 3 5 1012.7 1012.6 0.0
26/05:00pm 20.2 18.6 7.9 45 6.4 W 6 11 3 6 1012.4 1012.3 0.0
26/04:30pm 20.6 18.6 7.2 42 6.8 WSW 7 11 4 6 1012.2 1012.1 0.0
26/04:00pm 21.7 19.4 7.5 40 7.4 W 9 15 5 8 1012.1 1012.0 0.0
26/03:30pm 22.5 20.7 7.9 39 7.6 W 7 15 4 8 1012.0 1011.9 0.0
26/03:00pm 23.0 20.8 7.9 38 7.9 WNW 9 24 5 13 1012.0 1011.9 0.0
26/02:30pm 23.1 21.0 8.4 39 7.8 WNW 9 17 5 9 1012.1 1012.0 0.0
26/02:00pm 23.1 20.6 8.4 39 7.8 WNW 11 28 6 15 1012.3 1012.2 0.0
26/01:30pm 22.8 20.5 8.9 41 7.4 WNW 11 24 6 13 1012.2 1012.1 0.0
26/01:00pm 23.0 21.6 9.4 42 7.3 W 7 20 4 11 1012.3 1012.2 0.0
26/12:30pm 22.6 20.9 9.7 44 7.0 NW 9 19 5 10 1013.0 1012.9 0.0
26/12:00pm 21.4 20.3 10.6 50 5.9 NW 7 19 4 10 1013.6 1013.5 0.0
26/11:30am 20.4 19.2 9.6 50 5.8 NW 6 13 3 7 1014.3 1014.2 0.0
26/11:00am 20.7 19.8 10.5 52 5.5 NNW 6 17 3 9 1015.2 1015.1 0.0
26/10:30am 19.1 17.9 9.6 54 5.0 NW 6 15 3 8 1015.8 1015.7 0.0
26/10:00am 18.9 17.4 9.1 53 5.1 WNW 7 15 4 8 1015.8 1015.7 0.0
26/09:30am 18.0 16.7 9.1 56 4.6 WNW 6 17 3 9 1015.7 1015.6 0.0
26/09:00am 17.5 16.3 9.7 60 4.1 NW 6 9 3 5 1015.9 1015.8 0.0
26/08:30am 17.4 16.1 9.3 59 4.2 NW 6 11 3 6 1015.7 1015.6 0.0
26/08:00am 16.3 14.8 9.0 62 3.8 NW 7 11 4 6 1015.4 1015.3 0.0
26/07:30am 17.0 14.8 7.9 55 4.6 WNW 9 17 5 9 1015.2 1015.1 0.0
26/07:00am 16.4 13.2 9.8 65 3.5 NNW 17 24 9 13 1014.1 1014.0 0.0
26/06:30am 15.8 13.1 9.0 64 3.5 NW 13 20 7 11 1014.0 1013.9 0.0
26/06:00am 15.6 13.0 9.5 67 3.2 NW 13 17 7 9 1014.0 1013.9 0.0
26/05:30am 15.4 12.7 9.1 66 3.2 NW 13 17 7 9 1014.0 1013.9 0.0
26/05:00am 14.9 12.6 9.1 68 3.0 NW 11 15 6 8 1013.8 1013.7 0.0
26/04:30am 14.9 13.2 9.7 71 2.7 NNW 9 13 5 7 1013.9 1013.8 0.0
26/04:00am 15.0 13.0 8.5 65 3.3 NW 9 13 5 7 1014.2 1014.1 0.0
26/03:30am 15.4 13.3 8.2 62 3.6 NW 9 15 5 8 1014.2 1014.1 0.0
26/03:00am 15.5 13.3 9.4 67 3.1 NW 11 15 6 8 1014.4 1014.3 0.0
26/02:30am 15.5 13.7 9.4 67 3.2 NW 9 15 5 8 1014.8 1014.7 0.0
26/02:00am 15.4 13.5 8.9 65 3.3 NW 9 15 5 8 1015.0 1014.9 0.0
26/01:30am 15.6 13.8 9.3 66 3.2 NNW 9 13 5 7 1015.2 1015.1 0.0
26/01:00am 15.8 14.3 9.0 64 3.5 NW 7 15 4 8 1015.6 1015.5 0.0
26/12:30am 15.8 13.5 9.0 64 3.5 NW 11 15 6 8 1015.7 1015.6 0.0
26/12:00am 16.0 14.5 9.2 64 3.5 NW 7 11 4 6 1016.0 1015.9 0.0
 
Date/Time
EST
Temp
°C
App
Temp
°C
Dew
Point
°C
Rel
Hum
%
Delta-T
°C
Wind Press
QNH
hPa
Press
MSL
hPa
Rain since
9am
mm
Dir  Spd
km/h
Gust
km/h
Spd
kts
Gust
kts
25/11:30pm 16.3 14.5 9.5 64 3.5 NW 9 13 5 7 1016.2 1016.1 0.0
25/11:00pm 16.6 14.4 9.5 63 3.7 NW 11 13 6 7 1016.3 1016.2 0.0
25/10:30pm 17.0 14.9 9.7 62 3.8 NW 11 15 6 8 1016.5 1016.4 0.0
25/10:00pm 17.0 15.1 9.2 60 4.0 NW 9 13 5 7 1016.6 1016.5 0.0
25/09:30pm 16.8 15.0 9.5 62 3.8 NW 9 13 5 7 1016.7 1016.6 0.0
25/09:00pm 16.7 14.8 8.9 60 4.0 NW 9 13 5 7 1016.8 1016.7 0.0
25/08:30pm 16.9 15.0 9.1 60 4.0 NW 9 13 5 7 1016.9 1016.8 0.0
25/08:00pm 17.5 15.9 8.6 56 4.6 NW 7 13 4 7 1016.9 1016.8 0.0
25/07:30pm 18.3 15.9 9.9 58 4.5 NNW 13 15 7 8 1016.8 1016.7 0.0
25/07:00pm 18.6 16.3 10.4 59 4.4 NNW 13 17 7 9 1016.7 1016.6 0.0
25/06:30pm 19.2 17.1 11.3 60 4.3 NNW 13 15 7 8 1016.6 1016.5 0.0
25/06:00pm 19.8 17.3 11.0 57 4.8 N 15 17 8 9 1016.4 1016.3 0.0
25/05:30pm 20.7 17.3 11.3 55 5.2 N 20 22 11 12 1016.3 1016.2 0.0
25/05:00pm 21.3 17.0 10.8 51 5.8 N 24 28 13 15 1016.1 1016.0 0.0
25/04:30pm 21.6 18.4 11.9 54 5.4 N 20 22 11 12 1015.9 1015.8 0.0
25/04:00pm 22.1 19.2 12.4 54 5.5 N 19 22 10 12 1015.8 1015.7 0.0
25/03:30pm 24.0 22.9 9.9 41 7.7 NNW 6 9 3 5 1015.8 1015.7 0.0
25/03:00pm 24.5 22.9 8.0 35 8.8 NNW 6 9 3 5 1015.9 1015.8 0.0
25/02:30pm 25.0 23.5 9.3 37 8.6 NW 7 15 4 8 1016.1 1016.0 0.0
25/02:00pm 25.1 23.2 9.0 36 8.7 NNW 9 17 5 9 1016.3 1016.2 0.0
25/01:30pm 24.6 23.2 12.2 46 7.1 N 11 15 6 8 1016.6 1016.5 0.0
25/01:00pm 25.1 23.7 13.3 48 6.9 N 13 15 7 8 1017.0 1016.9 0.0
25/12:30pm 24.8 23.2 12.7 47 7.0 N 13 15 7 8 1017.4 1017.3 0.0
25/12:00pm 24.1 22.6 11.8 46 7.0 NNW 11 17 6 9 1017.9 1017.8 0.0
25/11:30am 23.9 22.7 11.6 46 6.9 NNW 9 15 5 8 1018.5 1018.4 0.0
25/11:00am 23.1 21.5 10.2 44 7.1 NNW 9 13 5 7 1019.1 1019.0 0.0
25/10:30am 22.0 20.6 10.8 49 6.2 N 9 13 5 7 1019.5 1019.4 0.0
25/10:00am 20.6 18.4 10.7 53 5.4 NNW 13 15 7 8 1019.8 1019.7 0.0
25/09:30am 20.4 18.8 10.2 52 5.5 NNW 9 13 5 7 1020.0 1019.9 0.0
25/09:00am 19.2 17.5 9.9 55 4.9 NNW 9 13 5 7 1020.1 1020.0 0.2
25/08:30am 17.5 15.9 8.6 56 4.6 NW 7 13 4 7 1020.1 1020.0 0.2
25/08:00am 16.4 14.1 9.1 62 3.8 NW 11 15 6 8 1020.1 1020.0 0.2
25/07:30am 14.3 13.1 8.0 66 3.1 WNW 4 9 2 5 1020.2 1020.1 0.2
25/07:00am 13.2 11.1 6.8 65 3.1 NW 7 11 4 6 1020.1 1020.0 0.2
25/06:30am 13.6 12.0 7.8 68 2.9 NW 6 7 3 4 1020.0 1019.9 0.2
25/06:00am 14.0 11.8 6.4 60 3.6 NW 7 11 4 6 1019.9 1019.8 0.2
25/05:30am 14.6 12.7 7.4 62 3.5 NW 7 13 4 7 1019.6 1019.5 0.2
25/05:00am 13.7 11.4 7.5 66 3.0 NW 9 13 5 7 1019.7 1019.6 0.2
25/04:30am 14.0 12.0 8.6 70 2.7 NW 9 15 5 8 1019.6 1019.5 0.2
25/04:00am 14.1 11.7 8.5 69 2.8 NW 11 15 6 8 1019.6 1019.5 0.2
25/03:30am 14.9 12.1 8.6 66 3.2 NW 13 17 7 9 1019.6 1019.5 0.2
25/03:00am 15.4 12.4 7.7 60 3.8 NNW 13 17 7 9 1019.7 1019.6 0.2
25/02:30am 15.2 13.1 9.6 69 2.9 NW 11 17 6 9 1019.9 1019.8 0.2
25/02:00am 15.2 13.6 10.2 72 2.6 NW 9 15 5 8 1020.0 1019.9 0.2
25/01:30am 14.8 13.1 9.8 72 2.6 NW 9 15 5 8 1020.3 1020.2 0.2
25/01:00am 15.1 13.5 10.1 72 2.6 NW 9 13 5 7 1020.4 1020.3 0.2
25/12:30am 15.6 14.2 10.8 73 2.6 NW 9 13 5 7 1020.6 1020.5 0.2
25/12:00am 15.9 15.2 13.2 84 1.5 NNW 9 11 5 6 1020.8 1020.7 0.2
 
Date/Time
EST
Temp
°C
App
Temp
°C
Dew
Point
°C
Rel
Hum
%
Delta-T
°C
Wind Press
QNH
hPa
Press
MSL
hPa
Rain since
9am
mm
Dir  Spd
km/h
Gust
km/h
Spd
kts
Gust
kts
24/11:30pm 16.3 16.0 12.7 79 2.0 NW 6 9 3 5 1020.9 1020.8 0.2
24/11:00pm 16.3 15.2 11.9 75 2.4 NW 9 13 5 7 1021.1 1021.0 0.2
24/10:30pm 16.6 15.6 12.4 76 2.3 NW 9 13 5 7 1021.1 1021.0 0.2
24/10:00pm 17.0 16.5 13.7 81 1.9 NW 9 13 5 7 1021.1 1021.0 0.2
24/09:30pm 17.2 16.7 13.9 81 1.9 NW 9 11 5 6 1021.3 1021.2 0.2
24/09:00pm 17.8 18.2 15.4 86 1.4 NW 7 9 4 5 1021.3 1021.2 0.2
24/08:30pm 17.9 17.9 15.3 85 1.5 NNW 9 11 5 6 1021.4 1021.3 0.2
24/08:00pm 18.4 18.7 16.0 86 1.4 N 9 11 5 6 1021.3 1021.2 0.2
24/07:30pm 19.1 19.2 16.5 85 1.6 N 11 13 6 7 1021.3 1021.2 0.2
24/07:00pm 19.7 20.0 17.1 85 1.6 N 11 15 6 8 1021.1 1021.0 0.2
24/06:30pm 20.6 19.9 18.2 86 1.5 N 19 20 10 11 1020.9 1020.8 0.2
24/06:00pm 20.7 20.3 18.1 85 1.6 NNE 17 19 9 10 1020.9 1020.8 0.2
24/05:30pm 20.6 20.9 18.0 85 1.6 NNE 13 15 7 8 1020.8 1020.7 0.2
24/05:00pm 20.6 20.6 17.2 81 2.1 NNE 13 15 7 8 1020.7 1020.6 0.2
24/04:30pm 20.9 20.3 16.7 77 2.5 NNE 15 19 8 10 1020.4 1020.3 0.2
24/04:00pm 21.2 20.0 16.2 73 3.0 NNE 17 19 9 10 1020.3 1020.2 0.2

Other formats

Comma delimited format used in spreadsheet applications
http://www.bom.gov.au/fwo/IDN60801/IDN60801.95770.axf

JavaScript Object Notation format (JSON) in row-major order
http://www.bom.gov.au/fwo/IDN60801/IDN60801.95770.json

Data quality

Most of these data are generated automatically and are frequently updated. Quality checks on data are not normally performed. It is possible for incorrect values to appear. Refer to information at About Latest Weather Observations and please check the disclaimer before using these data.